Ashwood, Oregon
Current Conditions -  °F | °C
As of 3:35 PM on Saturday 22 Nov 2014 (Local Time) from KS39 Reporting Station
Overcast Overcast  
Wind Chill: 32°   Ceiling: 3000
Heat Index: 39°   Visibility: 10mi
Dew Point: 32°   Wind: 12mph
Humidity: 75%   Direction: 290°WNW
Pressure: 30"   Gusts: 17mph
Location:  44.73°N, 120.76°W
Report Text: KS39 222335Z AUTO 29010G15KT 10SM BKN030 OVC038 04/M00 A3000 RMK AO2
Loading
Personal Weather Stations






























Interactive Weather Map New forecast layout! Learn more

10-Day Weather Forecast

Advertisements
Track Severe Weather on mobile